sensor_id;sensor_type;location;lat;lon;timestamp;pressure;altitude;pressure_sealevel;temperature;humidity
54918;BME280;40818;50.562;7.454;2023-03-13T00:09:24;96827.75;;;7.14;100.00
54918;BME280;40818;50.562;7.454;2023-03-13T00:19:28;96809.16;;;7.22;100.00
54918;BME280;40818;50.562;7.454;2023-03-13T00:29:34;96789.69;;;7.31;100.00
54918;BME280;40818;50.562;7.454;2023-03-13T00:39:38;96764.34;;;7.36;100.00
54918;BME280;40818;50.562;7.454;2023-03-13T00:49:44;96741.84;;;7.38;100.00
54918;BME280;40818;50.562;7.454;2023-03-13T00:59:47;96732.22;;;7.40;100.00
54918;BME280;40818;50.562;7.454;2023-03-13T01:09:53;96706.00;;;7.46;100.00
54918;BME280;40818;50.562;7.454;2023-03-13T01:19:57;96690.63;;;7.45;100.00
54918;BME280;40818;50.562;7.454;2023-03-13T01:30:04;96655.72;;;7.26;100.00
54918;BME280;40818;50.562;7.454;2023-03-13T01:40:10;96642.00;;;7.26;100.00
54918;BME280;40818;50.562;7.454;2023-03-13T01:50:16;96623.94;;;7.26;100.00
54918;BME280;40818;50.562;7.454;2023-03-13T02:00:33;96595.09;;;7.32;100.00
54918;BME280;40818;50.562;7.454;2023-03-13T02:10:50;96577.31;;;7.40;100.00
54918;BME280;40818;50.562;7.454;2023-03-13T02:21:00;96553.75;;;7.45;100.00
54918;BME280;40818;50.562;7.454;2023-03-13T02:31:07;96524.31;;;7.47;100.00
54918;BME280;40818;50.562;7.454;2023-03-13T02:41:12;96501.53;;;7.52;100.00
54918;BME280;40818;50.562;7.454;2023-03-13T02:51:22;96505.31;;;7.60;100.00
54918;BME280;40818;50.562;7.454;2023-03-13T03:01:28;96528.69;;;7.58;100.00
54918;BME280;40818;50.562;7.454;2023-03-13T03:11:34;96515.66;;;7.60;100.00
54918;BME280;40818;50.562;7.454;2023-03-13T03:21:42;96485.63;;;7.59;100.00
54918;BME280;40818;50.562;7.454;2023-03-13T03:31:50;96455.94;;;7.64;100.00
54918;BME280;40818;50.562;7.454;2023-03-13T03:41:54;96433.75;;;7.73;100.00
54918;BME280;40818;50.562;7.454;2023-03-13T03:52:01;96462.66;;;7.78;100.00
54918;BME280;40818;50.562;7.454;2023-03-13T04:02:09;96448.09;;;7.89;100.00
54918;BME280;40818;50.562;7.454;2023-03-13T04:12:17;96443.66;;;8.02;100.00
54918;BME280;40818;50.562;7.454;2023-03-13T04:22:22;96410.53;;;8.07;100.00
54918;BME280;40818;50.562;7.454;2023-03-13T04:32:33;96429.81;;;8.26;100.00
54918;BME280;40818;50.562;7.454;2023-03-13T04:42:55;96378.91;;;8.37;100.00
54918;BME280;40818;50.562;7.454;2023-03-13T04:53:22;96361.63;;;8.49;100.00
54918;BME280;40818;50.562;7.454;2023-03-13T05:03:44;96372.63;;;8.63;100.00
54918;BME280;40818;50.562;7.454;2023-03-13T05:14:28;96356.59;;;8.80;100.00
54918;BME280;40818;50.562;7.454;2023-03-13T05:24:50;96340.09;;;8.93;100.00
54918;BME280;40818;50.562;7.454;2023-03-13T05:34:59;96319.22;;;9.05;100.00
54918;BME280;40818;50.562;7.454;2023-03-13T05:45:15;96345.50;;;9.22;100.00
54918;BME280;40818;50.562;7.454;2023-03-13T05:55:21;96343.66;;;9.34;100.00
54918;BME280;40818;50.562;7.454;2023-03-13T06:05:47;96339.22;;;9.46;100.00
54918;BME280;40818;50.562;7.454;2023-03-13T06:16:08;96345.41;;;9.54;100.00
54918;BME280;40818;50.562;7.454;2023-03-13T06:26:19;96353.94;;;9.66;100.00
54918;BME280;40818;50.562;7.454;2023-03-13T06:36:26;96367.63;;;9.78;100.00
54918;BME280;40818;50.562;7.454;2023-03-13T06:46:30;96352.41;;;9.95;100.00
54918;BME280;40818;50.562;7.454;2023-03-13T06:56:36;96333.94;;;10.09;100.00
54918;BME280;40818;50.562;7.454;2023-03-13T07:06:40;96339.69;;;10.22;100.00
54918;BME280;40818;50.562;7.454;2023-03-13T07:16:46;96352.97;;;10.29;100.00
54918;BME280;40818;50.562;7.454;2023-03-13T07:26:49;96374.72;;;10.38;100.00
54918;BME280;40818;50.562;7.454;2023-03-13T07:36:55;96384.56;;;10.44;100.00
54918;BME280;40818;50.562;7.454;2023-03-13T07:46:59;96372.00;;;10.49;100.00
54918;BME280;40818;50.562;7.454;2023-03-13T07:57:05;96381.88;;;10.55;100.00
54918;BME280;40818;50.562;7.454;2023-03-13T08:07:09;96375.75;;;10.76;100.00
54918;BME280;40818;50.562;7.454;2023-03-13T08:17:15;96360.47;;;10.92;100.00
54918;BME280;40818;50.562;7.454;2023-03-13T08:27:19;96371.00;;;11.20;100.00
54918;BME280;40818;50.562;7.454;2023-03-13T08:37:27;96350.56;;;11.55;100.00
54918;BME280;40818;50.562;7.454;2023-03-13T08:47:31;96362.38;;;11.87;100.00
54918;BME280;40818;50.562;7.454;2023-03-13T08:57:37;96355.66;;;11.94;100.00
54918;BME280;40818;50.562;7.454;2023-03-13T09:07:40;96336.56;;;12.13;100.00
54918;BME280;40818;50.562;7.454;2023-03-13T09:17:46;96341.06;;;12.21;100.00
54918;BME280;40818;50.562;7.454;2023-03-13T09:27:50;96366.91;;;11.94;100.00
54918;BME280;40818;50.562;7.454;2023-03-13T09:37:56;96358.03;;;11.77;100.00
54918;BME280;40818;50.562;7.454;2023-03-13T09:48:01;96357.13;;;11.59;100.00
54918;BME280;40818;50.562;7.454;2023-03-13T09:58:14;96340.06;;;11.37;100.00
54918;BME280;40818;50.562;7.454;2023-03-13T10:08:22;96339.28;;;11.26;100.00
54918;BME280;40818;50.562;7.454;2023-03-13T10:18:28;96313.84;;;11.20;100.00
54918;BME280;40818;50.562;7.454;2023-03-13T10:28:32;96316.47;;;11.20;100.00
54918;BME280;40818;50.562;7.454;2023-03-13T10:38:48;96318.50;;;11.17;100.00
54918;BME280;40818;50.562;7.454;2023-03-13T10:48:53;96297.44;;;11.10;100.00
54918;BME280;40818;50.562;7.454;2023-03-13T10:59:00;96286.78;;;11.03;100.00
54918;BME280;40818;50.562;7.454;2023-03-13T11:09:10;96286.53;;;10.87;100.00
54918;BME280;40818;50.562;7.454;2023-03-13T11:19:34;96281.63;;;10.84;100.00
54918;BME280;40818;50.562;7.454;2023-03-13T11:29:48;96260.56;;;10.77;100.00
54918;BME280;40818;50.562;7.454;2023-03-13T11:40:08;96236.97;;;10.80;100.00
54918;BME280;40818;50.562;7.454;2023-03-13T11:50:37;96209.47;;;10.97;100.00
54918;BME280;40818;50.562;7.454;2023-03-13T12:00:56;96188.66;;;11.07;100.00
54918;BME280;40818;50.562;7.454;2023-03-13T12:11:07;96185.94;;;11.08;100.00
54918;BME280;40818;50.562;7.454;2023-03-13T12:21:20;96172.41;;;11.05;100.00
54918;BME280;40818;50.562;7.454;2023-03-13T12:31:27;96156.69;;;11.06;100.00
54918;BME280;40818;50.562;7.454;2023-03-13T12:41:39;96170.09;;;11.02;100.00
54918;BME280;40818;50.562;7.454;2023-03-13T12:51:54;96138.94;;;11.02;100.00
54918;BME280;40818;50.562;7.454;2023-03-13T13:02:14;96101.63;;;11.03;100.00
54918;BME280;40818;50.562;7.454;2023-03-13T13:12:19;96080.66;;;11.14;100.00
54918;BME280;40818;50.562;7.454;2023-03-13T13:22:50;96037.63;;;11.30;100.00
54918;BME280;40818;50.562;7.454;2023-03-13T13:32:54;96029.28;;;11.54;100.00
54918;BME280;40818;50.562;7.454;2023-03-13T13:43:02;95992.84;;;11.64;100.00
54918;BME280;40818;50.562;7.454;2023-03-13T13:53:29;95986.41;;;11.76;100.00
54918;BME280;40818;50.562;7.454;2023-03-13T14:03:39;95971.88;;;11.83;100.00
54918;BME280;40818;50.562;7.454;2023-03-13T14:13:43;95940.19;;;12.06;100.00
54918;BME280;40818;50.562;7.454;2023-03-13T14:23:49;95916.34;;;12.19;100.00
54918;BME280;40818;50.562;7.454;2023-03-13T14:33:54;95914.34;;;12.39;100.00
54918;BME280;40818;50.562;7.454;2023-03-13T14:44:09;95912.22;;;12.42;100.00
54918;BME280;40818;50.562;7.454;2023-03-13T14:54:28;95910.25;;;12.87;100.00
54918;BME280;40818;50.562;7.454;2023-03-13T15:04:53;95860.16;;;13.02;100.00
54918;BME280;40818;50.562;7.454;2023-03-13T15:14:58;95822.06;;;13.09;100.00
54918;BME280;40818;50.562;7.454;2023-03-13T15:25:08;95803.16;;;13.07;100.00
54918;BME280;40818;50.562;7.454;2023-03-13T15:35:25;95832.81;;;13.06;100.00
54918;BME280;40818;50.562;7.454;2023-03-13T15:45:32;95819.97;;;13.04;100.00
54918;BME280;40818;50.562;7.454;2023-03-13T15:55:36;95772.56;;;13.17;100.00
54918;BME280;40818;50.562;7.454;2023-03-13T16:05:42;95754.50;;;13.24;100.00
54918;BME280;40818;50.562;7.454;2023-03-13T16:15:46;95750.25;;;13.23;100.00
54918;BME280;40818;50.562;7.454;2023-03-13T16:25:52;95680.06;;;13.38;97.31
54918;BME280;40818;50.562;7.454;2023-03-13T16:35:56;95682.97;;;13.43;95.00
54918;BME280;40818;50.562;7.454;2023-03-13T16:46:02;95671.25;;;13.39;93.67
54918;BME280;40818;50.562;7.454;2023-03-13T16:56:08;95691.63;;;13.43;96.67
54918;BME280;40818;50.562;7.454;2023-03-13T17:06:26;95705.97;;;13.23;94.42
54918;BME280;40818;50.562;7.454;2023-03-13T17:16:31;95723.44;;;13.06;94.96
54918;BME280;40818;50.562;7.454;2023-03-13T17:26:38;95711.72;;;12.85;92.87
54918;BME280;40818;50.562;7.454;2023-03-13T17:36:42;95657.06;;;12.60;97.32
54918;BME280;40818;50.562;7.454;2023-03-13T17:46:48;95662.59;;;12.41;95.83
54918;BME280;40818;50.562;7.454;2023-03-13T17:56:52;95659.34;;;12.31;97.18
54918;BME280;40818;50.562;7.454;2023-03-13T18:06:59;95648.75;;;12.16;97.91
54918;BME280;40818;50.562;7.454;2023-03-13T18:17:08;95629.66;;;11.82;100.00
54918;BME280;40818;50.562;7.454;2023-03-13T18:27:19;95718.19;;;11.72;100.00
54918;BME280;40818;50.562;7.454;2023-03-13T18:37:26;95725.09;;;11.55;100.00
54918;BME280;40818;50.562;7.454;2023-03-13T18:47:32;95704.88;;;11.41;100.00
54918;BME280;40818;50.562;7.454;2023-03-13T18:57:36;95682.81;;;11.45;100.00
54918;BME280;40818;50.562;7.454;2023-03-13T19:07:42;95630.66;;;11.38;100.00
54918;BME280;40818;50.562;7.454;2023-03-13T19:17:46;95652.56;;;11.27;100.00
54918;BME280;40818;50.562;7.454;2023-03-13T19:27:52;95602.66;;;11.16;100.00
54918;BME280;40818;50.562;7.454;2023-03-13T19:37:55;95562.88;;;11.07;100.00
54918;BME280;40818;50.562;7.454;2023-03-13T19:48:01;95604.34;;;10.90;100.00
54918;BME280;40818;50.562;7.454;2023-03-13T19:58:04;95616.78;;;10.79;100.00
54918;BME280;40818;50.562;7.454;2023-03-13T20:08:11;95621.41;;;10.67;100.00
54918;BME280;40818;50.562;7.454;2023-03-13T20:18:14;95587.19;;;10.45;100.00
54918;BME280;40818;50.562;7.454;2023-03-13T20:28:20;95577.50;;;10.29;100.00
54918;BME280;40818;50.562;7.454;2023-03-13T20:38:24;95564.41;;;10.13;100.00
54918;BME280;40818;50.562;7.454;2023-03-13T20:48:30;95560.09;;;9.95;100.00
54918;BME280;40818;50.562;7.454;2023-03-13T20:58:33;95538.69;;;9.75;100.00
54918;BME280;40818;50.562;7.454;2023-03-13T21:08:40;95534.84;;;9.61;100.00
54918;BME280;40818;50.562;7.454;2023-03-13T21:18:43;95538.75;;;9.47;100.00
54918;BME280;40818;50.562;7.454;2023-03-13T21:28:49;95538.75;;;9.29;100.00
54918;BME280;40818;50.562;7.454;2023-03-13T21:38:53;95558.81;;;8.99;100.00
54918;BME280;40818;50.562;7.454;2023-03-13T21:48:59;95596.72;;;8.81;100.00
54918;BME280;40818;50.562;7.454;2023-03-13T21:59:03;95627.53;;;8.74;100.00
54918;BME280;40818;50.562;7.454;2023-03-13T22:09:09;95622.47;;;8.73;100.00
54918;BME280;40818;50.562;7.454;2023-03-13T22:19:13;95633.22;;;8.78;100.00
54918;BME280;40818;50.562;7.454;2023-03-13T22:29:19;95623.94;;;8.85;100.00
54918;BME280;40818;50.562;7.454;2023-03-13T22:39:23;95609.25;;;8.85;100.00
54918;BME280;40818;50.562;7.454;2023-03-13T22:49:29;95612.50;;;8.87;100.00
54918;BME280;40818;50.562;7.454;2023-03-13T22:59:32;95583.53;;;8.84;100.00
54918;BME280;40818;50.562;7.454;2023-03-13T23:09:38;95582.03;;;8.81;100.00
54918;BME280;40818;50.562;7.454;2023-03-13T23:19:42;95564.34;;;8.77;100.00
54918;BME280;40818;50.562;7.454;2023-03-13T23:29:48;95562.28;;;8.80;100.00
54918;BME280;40818;50.562;7.454;2023-03-13T23:39:53;95563.09;;;8.81;100.00
54918;BME280;40818;50.562;7.454;2023-03-13T23:50:01;95555.06;;;8.84;100.00
